createdAt,value
2023-01-13T00:00:03.430Z,87.9
2023-01-13T00:03:03.217Z,87.8
2023-01-13T00:06:03.268Z,87.8
2023-01-13T00:09:03.253Z,87.8
2023-01-13T00:12:03.286Z,87.8
2023-01-13T00:15:03.281Z,88
2023-01-13T00:18:03.252Z,88
2023-01-13T00:21:03.277Z,88
2023-01-13T00:24:03.252Z,88
2023-01-13T00:27:03.263Z,88
2023-01-13T00:30:03.340Z,88.2
2023-01-13T00:33:03.310Z,88.2
2023-01-13T00:36:03.249Z,88.2
2023-01-13T00:39:03.299Z,88.2
2023-01-13T00:42:03.277Z,88.2
2023-01-13T00:45:03.236Z,88.2
2023-01-13T00:48:03.359Z,88.2
2023-01-13T00:51:03.441Z,88.2
2023-01-13T00:54:03.240Z,88.2
2023-01-13T00:57:03.298Z,88.2
2023-01-13T01:00:03.349Z,88.4
2023-01-13T01:03:03.292Z,88.4
2023-01-13T01:06:03.202Z,88.4
2023-01-13T01:09:03.381Z,88.4
2023-01-13T01:12:03.319Z,88.4
2023-01-13T01:15:03.495Z,88.4
2023-01-13T01:18:03.265Z,88.4
2023-01-13T01:21:03.240Z,88.3
2023-01-13T01:24:03.312Z,88.3
2023-01-13T01:27:03.293Z,88.3
2023-01-13T01:30:03.260Z,88.3
2023-01-13T01:33:03.235Z,88.3
2023-01-13T01:36:03.281Z,88.3
2023-01-13T01:39:03.241Z,88.3
2023-01-13T01:42:03.332Z,88.3
2023-01-13T01:45:03.264Z,88.3
2023-01-13T01:48:03.267Z,88.3
2023-01-13T01:51:03.271Z,88.3
2023-01-13T01:54:03.320Z,88.3
2023-01-13T01:57:03.350Z,88.3
2023-01-13T02:00:03.383Z,88.3
2023-01-13T02:03:03.628Z,88.3
2023-01-13T02:06:03.257Z,88.3
2023-01-13T02:09:03.375Z,88.3
2023-01-13T02:12:03.239Z,88.3
2023-01-13T02:15:03.201Z,87.9
2023-01-13T02:18:03.380Z,87.9
2023-01-13T02:21:03.185Z,87.9
2023-01-13T02:24:03.351Z,87.9
2023-01-13T02:27:03.323Z,87.9
2023-01-13T02:30:03.281Z,87.9
2023-01-13T02:33:03.243Z,87.9
2023-01-13T02:36:03.241Z,87.9
2023-01-13T02:39:03.308Z,89.1
2023-01-13T02:42:03.256Z,89.1
2023-01-13T02:45:03.404Z,89.1
2023-01-13T02:48:03.290Z,89.1
2023-01-13T02:51:03.276Z,89.1
2023-01-13T02:54:03.229Z,89.1
2023-01-13T02:57:03.269Z,89.1
2023-01-13T03:00:03.115Z,88.9
2023-01-13T03:03:03.289Z,89
2023-01-13T03:06:03.092Z,89
2023-01-13T03:09:03.155Z,89
2023-01-13T03:12:03.263Z,89
2023-01-13T03:15:03.073Z,89
2023-01-13T03:18:03.144Z,89
2023-01-13T03:21:03.084Z,89
2023-01-13T03:24:03.193Z,89
2023-01-13T03:27:03.120Z,89
2023-01-13T03:30:03.112Z,89
2023-01-13T03:33:03.090Z,89
2023-01-13T03:36:03.128Z,89
2023-01-13T03:39:03.206Z,89.5
2023-01-13T03:42:03.065Z,89.5
2023-01-13T03:45:03.129Z,89.5
2023-01-13T03:48:03.040Z,89.5
2023-01-13T03:51:03.141Z,89.5
2023-01-13T03:54:03.105Z,89.5
2023-01-13T03:57:03.172Z,89.5
2023-01-13T04:00:03.132Z,89.5
2023-01-13T04:03:03.133Z,89.5
2023-01-13T04:06:03.115Z,87.6
2023-01-13T04:09:03.166Z,87.6
2023-01-13T04:12:03.101Z,87.6
2023-01-13T04:15:03.121Z,87.8
2023-01-13T04:18:03.120Z,87.8
2023-01-13T04:21:03.082Z,87.8
2023-01-13T04:24:03.126Z,88.1
2023-01-13T04:27:03.221Z,88.1
2023-01-13T04:30:03.260Z,86.8
2023-01-13T04:33:03.076Z,86.4
2023-01-13T04:36:03.086Z,85.7
2023-01-13T04:39:03.096Z,84.8
2023-01-13T04:42:03.142Z,84
2023-01-13T04:45:03.059Z,84
2023-01-13T04:48:03.165Z,84
2023-01-13T04:51:03.106Z,84
2023-01-13T04:54:03.148Z,84
2023-01-13T04:57:03.132Z,84
2023-01-13T05:00:03.297Z,84
2023-01-13T05:03:03.206Z,84
2023-01-13T05:06:03.148Z,79.6
2023-01-13T05:09:03.060Z,79.6
2023-01-13T05:12:03.165Z,79.6
2023-01-13T05:15:03.073Z,79.6
2023-01-13T05:18:03.101Z,79.6
2023-01-13T05:21:03.091Z,79.6
2023-01-13T05:24:03.056Z,79.6
2023-01-13T05:27:03.132Z,79.6
2023-01-13T05:30:03.093Z,80.1
2023-01-13T05:33:03.033Z,80.1
2023-01-13T05:36:03.188Z,80.1
2023-01-13T05:39:03.104Z,80.1
2023-01-13T05:42:03.081Z,80.1
2023-01-13T05:45:03.124Z,80.1
2023-01-13T05:48:03.054Z,80.1
2023-01-13T05:51:03.484Z,80.7
2023-01-13T05:54:03.355Z,80.7
2023-01-13T05:57:03.128Z,80.7
2023-01-13T06:00:03.507Z,80.7
2023-01-13T06:03:03.206Z,80.7
2023-01-13T06:06:03.075Z,80.3
2023-01-13T06:09:03.085Z,80.3
2023-01-13T06:12:03.138Z,80.3
2023-01-13T06:15:03.105Z,80.3
2023-01-13T06:18:03.115Z,80.3
2023-01-13T06:21:03.063Z,80.3
2023-01-13T06:24:03.093Z,80.3
2023-01-13T06:27:03.150Z,80.3
2023-01-13T06:30:03.079Z,80.3
2023-01-13T06:33:03.085Z,80.3
2023-01-13T06:36:03.080Z,80.3
2023-01-13T06:39:03.093Z,80.3
2023-01-13T06:42:03.236Z,80.3
2023-01-13T06:45:03.812Z,80.3
2023-01-13T06:48:03.044Z,80.3
2023-01-13T06:51:03.073Z,80.3
2023-01-13T06:54:03.084Z,80.3
2023-01-13T06:57:03.122Z,80.3
2023-01-13T07:00:03.184Z,80.7
2023-01-13T07:03:04.087Z,80.7
2023-01-13T07:06:03.094Z,80.7
2023-01-13T07:09:03.143Z,80.7
2023-01-13T07:12:03.110Z,80.7
2023-01-13T07:15:03.150Z,80.7
2023-01-13T07:18:03.111Z,80.7
2023-01-13T07:21:03.159Z,80.7
2023-01-13T07:24:03.146Z,80.7
2023-01-13T07:27:03.153Z,80.7
2023-01-13T07:30:03.294Z,80.7
2023-01-13T07:33:03.130Z,80.7
2023-01-13T07:36:03.143Z,80.7
2023-01-13T07:39:03.136Z,80.7
2023-01-13T07:42:03.200Z,80.7
2023-01-13T07:45:03.085Z,80.3
2023-01-13T07:48:03.207Z,80.3
2023-01-13T07:51:03.132Z,80.3
2023-01-13T07:54:03.163Z,80.2
2023-01-13T07:57:03.159Z,80.2
2023-01-13T08:00:03.215Z,80.2
2023-01-13T08:03:03.245Z,80.2
2023-01-13T08:06:03.258Z,80.2
2023-01-13T08:09:03.090Z,80.2
2023-01-13T08:12:03.162Z,80.2
2023-01-13T08:15:03.804Z,80.2
2023-01-13T08:18:03.206Z,80.2
2023-01-13T08:21:03.294Z,80.2
2023-01-13T08:24:03.122Z,80.2
2023-01-13T08:27:03.153Z,78
2023-01-13T08:30:03.379Z,78
2023-01-13T08:33:03.109Z,78
2023-01-13T08:36:03.138Z,78
2023-01-13T08:39:03.129Z,77.8
2023-01-13T08:42:03.171Z,77.8
2023-01-13T08:45:03.124Z,77.8
2023-01-13T08:48:03.172Z,77.8
2023-01-13T08:51:03.224Z,77.7
2023-01-13T08:54:03.229Z,77.7
2023-01-13T08:57:03.334Z,77.7
2023-01-13T09:00:03.255Z,77.7
2023-01-13T09:03:03.157Z,77.7
2023-01-13T09:06:03.133Z,77.7
2023-01-13T09:09:03.103Z,77.7
2023-01-13T09:12:03.134Z,77.7
2023-01-13T09:15:03.175Z,77.7
2023-01-13T09:18:03.076Z,77.5
2023-01-13T09:21:03.083Z,77.5
2023-01-13T09:24:03.168Z,77.5
2023-01-13T09:27:03.225Z,77.5
2023-01-13T09:30:03.265Z,77.5
2023-01-13T09:33:03.099Z,77.5
2023-01-13T09:36:03.225Z,77.5
2023-01-13T09:39:03.101Z,77.5
2023-01-13T09:42:03.178Z,77.5
2023-01-13T09:45:03.120Z,76
2023-01-13T09:48:03.097Z,76
2023-01-13T09:51:03.300Z,76
2023-01-13T09:54:03.097Z,76
2023-01-13T09:57:03.103Z,76
2023-01-13T10:00:03.275Z,76
2023-01-13T10:03:03.126Z,76
2023-01-13T10:06:03.138Z,76
2023-01-13T10:09:03.142Z,75.5
2023-01-13T10:12:03.098Z,75.5
2023-01-13T10:15:03.123Z,75.5
2023-01-13T10:18:03.241Z,75.5
2023-01-13T10:21:03.139Z,75.5
2023-01-13T10:24:03.332Z,75.5
2023-01-13T10:27:03.149Z,75.5
2023-01-13T10:30:03.197Z,75.5
2023-01-13T10:33:03.233Z,75.5
2023-01-13T10:36:03.186Z,75.5
2023-01-13T10:39:03.145Z,75.5
2023-01-13T10:42:03.129Z,75.2
2023-01-13T10:45:03.158Z,74
2023-01-13T10:48:03.103Z,74
2023-01-13T10:51:03.105Z,73.9
2023-01-13T10:54:03.154Z,73.9
2023-01-13T10:57:03.141Z,73.9
2023-01-13T11:00:03.229Z,73.9
2023-01-13T11:03:03.112Z,73.9
2023-01-13T11:06:03.338Z,73.9
2023-01-13T11:09:03.129Z,73.9
2023-01-13T11:12:03.143Z,73.9
2023-01-13T11:15:03.233Z,73.9
2023-01-13T11:18:03.310Z,73.9
2023-01-13T11:21:03.091Z,73.9
2023-01-13T11:24:03.103Z,73.9
2023-01-13T11:27:03.174Z,73.9
2023-01-13T11:30:03.513Z,73.9
2023-01-13T11:33:03.098Z,73.9
2023-01-13T11:36:03.311Z,73.9
2023-01-13T11:39:03.152Z,73.9
2023-01-13T11:42:03.270Z,69
2023-01-13T11:45:03.264Z,69
2023-01-13T11:48:03.324Z,69
2023-01-13T11:51:03.430Z,69
2023-01-13T11:54:03.217Z,69
2023-01-13T11:57:03.435Z,69
2023-01-13T12:00:03.379Z,69.6
2023-01-13T12:03:03.389Z,69.6
2023-01-13T12:06:03.542Z,69.6
2023-01-13T12:09:03.337Z,69.6
2023-01-13T12:12:03.418Z,69.6
2023-01-13T12:15:03.230Z,69.6
2023-01-13T12:18:03.144Z,69.6
2023-01-13T12:21:03.116Z,69.6
2023-01-13T12:24:03.240Z,69.6
2023-01-13T12:27:03.208Z,69.6
2023-01-13T12:30:03.355Z,69.6
2023-01-13T12:33:03.104Z,69.6
2023-01-13T12:36:03.172Z,67.7
2023-01-13T12:39:03.225Z,68.5
2023-01-13T12:42:03.109Z,68.5
2023-01-13T12:45:03.717Z,68.5
2023-01-13T12:48:03.171Z,69.6
2023-01-13T12:51:03.148Z,69.3
2023-01-13T12:54:03.164Z,69.3
2023-01-13T12:57:03.101Z,69.3
2023-01-13T13:00:03.372Z,69.3
2023-01-13T13:03:03.271Z,69.3
2023-01-13T13:06:03.153Z,69.3
2023-01-13T13:09:06.601Z,69.8
2023-01-13T13:12:03.313Z,69.1
2023-01-13T13:15:06.395Z,69.1
2023-01-13T13:18:03.177Z,69.1
2023-01-13T13:21:07.109Z,69.1
2023-01-13T13:24:03.190Z,69.1
2023-01-13T13:27:05.986Z,69.1
2023-01-13T13:30:03.327Z,69.1
2023-01-13T13:33:03.155Z,70.1
2023-01-13T13:36:03.173Z,70.1
2023-01-13T13:39:03.382Z,70.1
2023-01-13T13:42:03.160Z,70.1
2023-01-13T13:45:03.183Z,70.1
2023-01-13T13:48:03.185Z,70.1
2023-01-13T13:51:03.236Z,70.1
2023-01-13T13:54:03.258Z,70.1
2023-01-13T13:57:03.155Z,71.3
2023-01-13T14:00:03.343Z,71.3
2023-01-13T14:03:03.157Z,71.3
2023-01-13T14:06:03.099Z,71.3
2023-01-13T14:09:03.050Z,71.3
2023-01-13T14:12:03.124Z,71.3
2023-01-13T14:15:03.107Z,71.3
2023-01-13T14:18:03.176Z,72.6
2023-01-13T14:21:03.096Z,72.6
2023-01-13T14:24:03.129Z,72.6
2023-01-13T14:27:03.061Z,73.2
2023-01-13T14:30:03.272Z,73.2
2023-01-13T14:33:03.201Z,73.2
2023-01-13T14:36:03.092Z,73.9
2023-01-13T14:39:03.045Z,73.9
2023-01-13T14:42:03.150Z,73.9
2023-01-13T14:45:03.057Z,73.9
2023-01-13T14:48:03.049Z,73.9
2023-01-13T14:51:03.036Z,75.1
2023-01-13T14:54:03.004Z,75.1
2023-01-13T14:57:03.147Z,75.1
2023-01-13T15:00:03.078Z,75.6
2023-01-13T15:03:03.218Z,75.6
2023-01-13T15:06:03.085Z,75.6
2023-01-13T15:09:03.102Z,75.6
2023-01-13T15:12:03.079Z,75.6
2023-01-13T15:15:03.067Z,76.3
2023-01-13T15:18:03.067Z,76.3
2023-01-13T15:21:03.064Z,76.3
2023-01-13T15:24:03.118Z,76.3
2023-01-13T15:27:03.027Z,76.3
2023-01-13T15:30:03.179Z,76.3
2023-01-13T15:33:02.987Z,76.3
2023-01-13T15:36:03.019Z,76.3
2023-01-13T15:39:03.042Z,76.3
2023-01-13T15:42:03.016Z,76.3
2023-01-13T15:45:03.358Z,77.1
2023-01-13T15:48:04.241Z,77.1
2023-01-13T15:51:04.189Z,77.1
2023-01-13T15:54:03.028Z,77.1
2023-01-13T15:57:03.001Z,77.1
2023-01-13T16:00:03.146Z,77.1
2023-01-13T16:03:03.195Z,77.1
2023-01-13T16:06:03.014Z,77.1
2023-01-13T16:09:05.771Z,77.5
2023-01-13T16:12:03.029Z,77.5
2023-01-13T16:15:03.028Z,77.5
2023-01-13T16:18:03.044Z,78
2023-01-13T16:21:03.042Z,78
2023-01-13T16:24:03.031Z,78.4
2023-01-13T16:27:03.071Z,78.4
2023-01-13T16:30:03.040Z,78.4
2023-01-13T16:33:03.072Z,78.4
2023-01-13T16:36:14.774Z,78.4
2023-01-13T16:39:03.062Z,78.4
2023-01-13T16:42:03.138Z,78.4
2023-01-13T16:45:03.113Z,78.4
2023-01-13T16:48:03.218Z,78.4
2023-01-13T16:51:03.099Z,78.4
2023-01-13T16:54:03.327Z,78.4
2023-01-13T16:57:03.242Z,78.4
2023-01-13T17:00:03.236Z,78.8
2023-01-13T17:03:03.066Z,78.8
2023-01-13T17:06:03.189Z,78.8
2023-01-13T17:09:03.252Z,78.8
2023-01-13T17:12:03.085Z,79.2
2023-01-13T17:15:03.126Z,79.4
2023-01-13T17:18:03.146Z,79.4
2023-01-13T17:21:03.097Z,79.4
2023-01-13T17:24:03.054Z,79.4
2023-01-13T17:27:03.130Z,79.4
2023-01-13T17:30:03.208Z,79.4
2023-01-13T17:33:03.095Z,79.4
2023-01-13T17:36:03.137Z,79.4
2023-01-13T17:39:03.082Z,79.4
2023-01-13T17:42:03.287Z,79.2
2023-01-13T17:45:03.174Z,79.2
2023-01-13T17:48:03.308Z,79.2
2023-01-13T17:51:03.106Z,79.2
2023-01-13T17:54:03.083Z,79.2
2023-01-13T17:57:03.125Z,79.2
2023-01-13T18:00:03.124Z,77.8
2023-01-13T18:03:03.305Z,77.9
2023-01-13T18:06:03.121Z,77.9
2023-01-13T18:09:03.185Z,77.9
2023-01-13T18:12:03.086Z,77.9
2023-01-13T18:15:03.145Z,77.9
2023-01-13T18:18:03.345Z,77.9
2023-01-13T18:21:03.090Z,77.9
2023-01-13T18:24:03.092Z,77.9
2023-01-13T18:27:03.122Z,77.9
2023-01-13T18:30:03.141Z,77.9
2023-01-13T18:33:03.172Z,77.8
2023-01-13T18:36:03.166Z,77.8
2023-01-13T18:39:03.119Z,77.8
2023-01-13T18:42:03.057Z,77.8
2023-01-13T18:45:03.106Z,77.8
2023-01-13T18:48:03.263Z,77.8
2023-01-13T18:51:03.134Z,77.8
2023-01-13T18:54:03.162Z,77.8
2023-01-13T18:57:03.128Z,77.3
2023-01-13T19:00:03.197Z,77.4
2023-01-13T19:06:03.090Z,77.4
2023-01-13T19:09:03.088Z,77.4
2023-01-13T19:12:03.089Z,77.4
2023-01-13T19:15:03.117Z,77.1
2023-01-13T19:18:03.143Z,77.1
2023-01-13T19:21:03.155Z,77.1
2023-01-13T19:24:03.081Z,77.1
2023-01-13T19:27:03.033Z,77.1
2023-01-13T19:30:05.584Z,77.4
2023-01-13T19:33:03.037Z,77.4
2023-01-13T19:36:03.156Z,77.4
2023-01-13T19:39:03.101Z,77.4
2023-01-13T19:42:03.130Z,77.4
2023-01-13T19:45:03.116Z,77.4
2023-01-13T19:48:03.178Z,77.4
2023-01-13T19:51:03.063Z,78.2
2023-01-13T19:54:03.440Z,78.2
2023-01-13T19:57:03.140Z,78.2
2023-01-13T20:00:03.478Z,78.6
2023-01-13T20:03:03.397Z,78.6
2023-01-13T20:06:03.145Z,79.3
2023-01-13T20:09:03.170Z,79.3
2023-01-13T20:12:03.159Z,79.3
2023-01-13T20:15:03.191Z,79.3
2023-01-13T20:18:03.157Z,79.3
2023-01-13T20:21:03.136Z,79.3
2023-01-13T20:24:03.094Z,79.3
2023-01-13T20:27:03.166Z,79.3
2023-01-13T20:30:03.227Z,81.5
2023-01-13T20:33:03.077Z,81.5
2023-01-13T20:36:03.150Z,81.5
2023-01-13T20:39:03.111Z,81.5
2023-01-13T20:42:03.149Z,81.5
2023-01-13T20:45:03.124Z,81.5
2023-01-13T20:48:03.162Z,81.5
2023-01-13T20:51:03.121Z,80.5
2023-01-13T20:54:03.152Z,80.5
2023-01-13T20:57:03.069Z,80.5
2023-01-13T21:00:03.390Z,80.5
2023-01-13T21:03:03.141Z,80.5
2023-01-13T21:06:03.136Z,80.5
2023-01-13T21:09:03.111Z,80.5
2023-01-13T21:12:03.140Z,80.5
2023-01-13T21:15:03.148Z,80.5
2023-01-13T21:18:03.091Z,80.5
2023-01-13T21:21:03.135Z,80.5
2023-01-13T21:24:03.137Z,79.6
2023-01-13T21:27:03.110Z,79.6
2023-01-13T21:30:03.118Z,79.6
2023-01-13T21:33:03.188Z,79.6
2023-01-13T21:36:03.130Z,79.6
2023-01-13T21:39:03.146Z,79.6
2023-01-13T21:42:03.049Z,79.6
2023-01-13T21:45:03.344Z,78.7
2023-01-13T21:48:03.144Z,78.8
2023-01-13T21:51:03.233Z,78.8
2023-01-13T21:54:03.126Z,78.8
2023-01-13T21:57:03.207Z,78.8
2023-01-13T22:00:03.199Z,78.6
2023-01-13T22:03:03.116Z,78.6
2023-01-13T22:06:03.402Z,78.6
2023-01-13T22:09:03.209Z,78.6
2023-01-13T22:12:03.059Z,78.6
2023-01-13T22:15:03.125Z,78.6
2023-01-13T22:18:03.070Z,78.6
2023-01-13T22:21:03.152Z,78.6
2023-01-13T22:24:03.157Z,78.9
2023-01-13T22:27:03.207Z,78.9
2023-01-13T22:30:03.139Z,78.9
2023-01-13T22:33:03.144Z,78.9
2023-01-13T22:36:03.068Z,78.9
2023-01-13T22:39:03.442Z,78.8
2023-01-13T22:42:03.266Z,78.8
2023-01-13T22:45:03.139Z,78.8
2023-01-13T22:48:03.150Z,78.8
2023-01-13T22:51:03.240Z,78.8
2023-01-13T22:54:03.084Z,78.8
2023-01-13T22:57:03.145Z,78.8
2023-01-13T23:00:04.056Z,78.8
2023-01-13T23:03:03.119Z,78.8
2023-01-13T23:06:03.202Z,78.8
2023-01-13T23:09:03.223Z,78.8
2023-01-13T23:12:03.219Z,78.8
2023-01-13T23:15:03.114Z,78.8
2023-01-13T23:18:03.107Z,78.8
2023-01-13T23:21:03.104Z,78.8
2023-01-13T23:24:03.075Z,78.8
2023-01-13T23:27:03.204Z,78.8
2023-01-13T23:30:03.162Z,78.8
2023-01-13T23:33:03.128Z,80.8
2023-01-13T23:36:03.193Z,80.8
2023-01-13T23:39:03.183Z,80.8
2023-01-13T23:42:03.102Z,80.5
2023-01-13T23:45:03.179Z,80.5
2023-01-13T23:48:03.341Z,80.5
2023-01-13T23:51:03.107Z,80.5
2023-01-13T23:54:03.194Z,80.5
2023-01-13T23:57:03.146Z,80.5
